Tide Charts & Local Weather | Sea Star Realty

You are here

Myrtle Beach Area Weather

Myrtle Beach offers a warm, temperate environment that’s perfect for enjoying the beach. May through August are the most popular travel dates with hot, sunny weather. The humidity picks up a bit in July and August, with a little more rainfall to keep everything green. Winters at Myrtle Beach are mild, with weather that is still warm enough to enjoy strolls on the beach, golfing and much more.  

Myrtle Beach's 10 Day Weather Forecast

Month Average High Average Low
January 56° 38°
February 59° 41°
March 65° 47°
April 73° 55°
May 79° 63°
June 85° 70°
July 88° 74°
August 87° 73°
September 83° 68°
October 75° 57°
November 67° 48°
December 60° 41°

Myrtle Beach Area Tide Charts

US Harbors is your best source for Myrtle Beach area tide charts. These tide charts are taken from Pawley's Island Pier. If you're in Murrells Inlet, you'll want to subtract 58 minutes from the high and 90 minutes for the low.

September 2021

Date High Low Sun Moon
AM ft PM ft AM ft PM ft Rise Set
1 Wed 3:32 4.2 4:01 5.0 9:31 1.2 10:48 1.6 6:49 7:42 First Quarter
2 Thu 4:27 4.3 4:52 5.2 10:29 1.1 11:37 1.4 6:50 7:41 Waxing Gibbous
3 Fri 5:19 4.5 5:39 5.5 11:21 0.9     6:51 7:40 Waxing Gibbous
4 Sat 6:08 4.8 6:23 5.8 12:20 1.1 12:08 0.7 6:51 7:39 Waxing Gibbous
5 Sun 6:54 5.1 7:06 6.0 1:01 0.8 12:55 0.5 6:52 7:37 Full Moon
6 Mon 7:40 5.4 7:49 6.1 1:42 0.5 1:42 0.3 6:53 7:36 Full Moon
7 Tue 8:24 5.7 8:32 6.1 2:23 0.2 2:30 0.2 6:53 7:34 Full Moon
8 Wed 9:08 5.9 9:16 6.0 3:04 0.0 3:18 0.1 6:54 7:33 Full Moon
9 Thu 9:53 6.0 10:02 5.7 3:45 -0.1 4:06 0.0 6:55 7:32 Waning Gibbous
10 Fri 10:43 5.9 10:52 5.4 4:28 -0.1 4:56 0.1 6:55 7:30 Waning Gibbous
11  Sat 11:39 5.9 11:51 5.1 5:14 0.0 5:50 0.3 6:56 7:29 Waning Gibbous
12 Sun     12:41 5.8 6:06 0.2 6:49 0.6 6:56 7:28 Third Quarter
13 Mon 12:54 4.8 1:44 5.8 7:02 0.3 7:54 0.8 6:57 7:26 Third Quarter
14 Tue 1:58 4.7 2:46 5.8 8:06 0.5 9:07 0.9 6:58 7:25 Third Quarter
15 Wed 3:01 4.6 3:49 5.9 9:17 0.6 10:22 0.8 6:58 7:24 Third Quarter
16 Thu 4:07 4.7 4:50 6.0 10:29 0.5 11:23 0.7 6:59 7:22 Waning Crescent
17 Fri 5:09 4.9 5:45 6.2 11:29 0.4     7:00 7:21 Waning Crescent
18 Sat 6:05 5.2 6:36 6.2 12:14 0.5 12:22 0.3 7:00 7:19 Waning Crescent
19 Sun 5:56 5.5 7:23 6.2 12:59 0.4 1:11 0.3 7:01 7:18 Waning Crescent
20 Mon 7:42 5.7 8:07 6.0 1:41 0.3 1:59 0.3 7:02 7:17 New Moon
21 Tue 8:24 5.8 8:48 5.8 2:20 0.2 2:44 0.3 7:03 7:15 New Moon
22 Wed 9:03 5.8 9:27 5.5 2:58 0.3 3:25 0.4 7:03 7:14 New Moon
23 Thu 9:41 5.7 10:05 5.1 3:34 0.3 4:05 0.5 7:04 7:12 New Moon
24 Fri 10:19 5.4 10:45 4.7 4:09 0.5 4:44 0.7 7:05 7:11 Waxing Crescent
25 Sat 11:00 5.2 11:29 4.4 4:46 0.6 5:24 0.9 7:05 7:10 Waxing Crescent
26 Sun 11:47 4.9     5:25 0.8 6:07 1.2 7:06 7:08 Waxing Crescent
27 Mon 12:19 4.2 12:39 4.8 6:08 0.9 6:55 1.4 7:07 7:07 Waxing Crescent
28 Tue 1:11 4.0 1:33 4.7 6:55 1.1 7:50 1.6 7:07 7:06 First Quarter
29 Wed 2:03 4.0 2:25 4.8 7:47 1.2 8:55 1.7 7:08 7:04 First Quarter
30 Thu 2:57 4.1 3:18 5.0 8:46 1.3 10:03 1.6 7:09 7:03 First Quarter
                         
Date High Low Sun Moon
AM ft PM ft AM ft PM ft Rise Set

 

October 2021

Date High Low Sun Moon
AM ft PM ft AM ft PM ft Rise Set
1 Mon 3:56 5.6 4:44 6.2 10:27 0.4 11:02 0.5 6:06 8:22 Waxing Gibbous
2 Tue 4:56 5.6 5:39 6.6 11:22 0.1     6:05 8:23 Waxing Gibbous
3 Wed 5:53 5.6 6:32 6.8 12:00 0.2 12:14 -0.1 6:05 8:23 Waxing Gibbous
4 Thu 6:48 5.5 7:25 6.9 12:56 0.0 1:05 -0.2 6:05 8:24 Full Moon
5 Fri 7:42 5.4 8:17 6.8 1:50 -0.2 1:56 -0.3 6:05 8:25 Full Moon
6 Sat 8:34 5.3 9:07 6.6 2:42 -0.3 2:46 -0.4 6:05 8:25 Full Moon
7 Sun 9:24 5.0 9:56 6.3 3:32 -0.3 3:35 -0.3 6:04 8:26 Waning Gibbous
8 Mon 10:14 4.8 10:46 5.9 4:20 -0.1 4:23 0.0 6:04 8:26 Waning Gibbous
9 Tue 11:07 4.6 11:39 5.6 5:07 0.1 5:11 0.3 6:04 8:26 Waning Gibbous
10 Wed     12:05 4.5 5:54 0.3 6:01 0.7 6:04 8:27 Waning Gibbous
11 Thu 12:32 5.3 1:02 4.5 6:41 0.6 6:53 1.1 6:04 8:27 Third Quarter
12 Fri 1:23 5.1 1:53 4.7 7:27 0.9 7:48 1.4 6:04 8:28 Third Quarter
13 Sat 2:11 4.9 2:42 4.9 8:13 1.1 8:50 1.6 6:04 8:28 Third Quarter
14 Sun 2:58 4.8 3:29 5.1 9:02 1.2 9:54 1.7 6:04 8:28 Third Quarter
15 Mon 3:46 4.7 4:16 5.3 9:53 1.2 10:51 1.6 6:04 8:29 Waning Crescent
16 Tue 4:35 4.7 5:01 5.4 10:42 1.1 11:38 1.4 6:05 8:29 Waning Crescent
17 Wed 5:22 4.7 5:45 5.6 11:27 1.0     6:05 8:29 Waning Crescent
18 Thu 6:07 4.7 6:27 5.7 12:22 1.2 12:09 0.8 6:05 8:30 Waning Crescent
19 Fri 6:51 4.7 7:09 5.8 1:04 1.0 12:52 0.6 6:05 8:30 New Moon
20 Sat 7:35 4.7 7:52 5.9 1:48 0.8 1:35 0.4 6:05 8:30 New Moon
21 Sun 8:19 4.7 8:34 5.9 2:32 0.6 2:19 0.2 6:05 8:30 New Moon
22 Mon 9:03 4.6 9:16 6.0 3:16 0.4 3:04 0.2 6:06 8:31 New Moon
23 Tue 9:49 4.6 10:00 6.0 3:59 0.3 3:49 0.2 6:06 8:31 Waxing Crescent
24 Wed 10:40 4.7 10:48 5.9 4:43 0.2 4:36 0.3 6:06 8:31 Waxing Crescent
25 Thu 11:37 4.8 11:42 5.8 5:29 0.2 5:28 0.4 6:07 8:31 Waxing Crescent
26 Fri     12:37 5.0 6:17 0.3 6:23 0.6 6:07 8:31 First Quarter
27 Sat 12:41 5.7 1:35 5.4 7:08 0.3 7:24 0.8 6:07 8:31 First Quarter
28 Sun 1:39 5.6 2:31 5.7 8:02 0.4 8:29 0.9 6:08 8:31 First Quarter
29 Mon 2:36 5.5 3:28 6.0 9:01 0.5 9:40 0.9 6:08 8:31 Waxing Gibbous
30 Tue 3:36 5.4 4:25 6.3 10:03 0.4 10:48 0.7 6:08 8:31 Waxing Gibbous
Date High Low Sun Moon
AM ft PM ft AM ft PM ft Rise Set

 

More tide charts from US Harbors